.
WxDataArchive / Data Records for 2010-07-22
2010-07-21 July 2010 2010-07-23

Data Records for Thursday, 22 July 2010

Time	Temp	Chill	HIndex	Humid	Dewpt	 Wind 	HiWind	WindDir	Rain 	Barom 
-----	----	-----	------	-----	-----	------	------	-------	-----	----- 
00:00	73.2	73.2	73.2	81	67.0	0	0	---	0.00	30.035 
00:05	73.2	73.2	73.2	81	67.0	0	0	---	0.00	30.035 
00:10	73.0	73.0	73.0	81	66.8	0	0	---	0.00	30.035 
00:15	73.0	73.0	73.0	81	66.8	0	0	---	0.00	30.034 
00:20	72.8	72.8	72.8	81	66.6	0	0	---	0.00	30.034 
00:25	72.8	72.8	72.8	81	66.6	0	0	---	0.00	30.034 
00:30	72.7	72.7	72.7	81	66.5	0	0	---	0.00	30.030 
00:35	72.5	72.5	72.5	81	66.3	0	0	---	0.00	30.030 
00:40	72.3	72.3	72.3	82	66.5	0	0	---	0.00	30.030 
00:45	72.1	72.1	72.1	82	66.3	0	0	---	0.00	30.028 
00:50	72.0	72.0	72.0	83	66.5	0	0	---	0.00	30.028 
00:55	71.8	71.8	71.8	83	66.3	0	0	---	0.00	30.028 
01:00	71.6	71.6	71.6	84	66.5	0	0	---	0.00	30.028 
01:05	71.5	71.5	71.5	84	66.4	0	0	---	0.00	30.028 
01:10	71.3	71.3	71.3	84	66.2	0	0	---	0.00	30.028 
01:15	71.3	71.3	71.3	84	66.2	0	0	---	0.00	30.030 
01:20	71.1	71.1	71.1	85	66.4	0	0	---	0.00	30.030 
01:25	70.9	70.9	70.9	85	66.2	0	0	---	0.00	30.030 
01:30	70.8	70.8	70.8	86	66.4	0	0	---	0.00	30.030 
01:35	70.6	70.6	70.6	86	66.2	0	0	---	0.00	30.030 
01:40	70.4	70.4	70.4	87	66.3	0	0	---	0.00	30.030 
01:45	70.3	70.3	70.3	87	66.2	0	0	---	0.00	30.031 
01:50	70.1	70.1	70.1	88	66.4	0	0	---	0.00	30.031 
01:55	70.1	70.1	70.1	88	66.4	0	0	---	0.00	30.031 
02:00	69.9	69.9	69.9	88	66.2	0	0	---	0.00	30.034 
02:05	69.9	69.9	69.9	88	66.2	0	0	---	0.00	30.034 
02:10	69.8	69.8	69.8	89	66.4	0	0	---	0.00	30.034 
02:15	69.6	69.6	69.6	89	66.2	0	0	---	0.00	30.032 
02:20	69.6	69.6	69.6	89	66.2	0	0	---	0.00	30.032 
02:25	69.4	69.4	69.4	89	66.0	0	0	---	0.00	30.032 
02:30	69.3	69.3	69.3	89	65.9	0	0	---	0.00	30.030 
02:35	69.1	69.1	69.1	89	65.7	0	0	---	0.00	30.030 
02:40	69.1	69.1	69.1	90	66.0	0	0	---	0.00	30.030 
02:45	69.1	69.1	69.1	90	66.0	0	0	---	0.00	30.024 
02:50	68.9	68.9	68.9	90	65.8	0	0	---	0.00	30.024 
02:55	68.9	68.9	68.9	90	65.8	0	0	---	0.00	30.024 
03:00	68.8	68.8	68.8	90	65.7	0	0	---	0.00	30.020 
03:05	68.6	68.6	68.6	90	65.5	0	0	---	0.00	30.020 
03:10	68.4	68.4	68.4	90	65.3	0	0	---	0.00	30.020 
03:15	68.4	68.4	68.4	90	65.3	0	0	---	0.00	30.030 
03:20	68.3	68.3	68.3	91	65.6	0	0	---	0.00	30.030 
03:25	68.1	68.1	68.1	91	65.4	0	0	---	0.00	30.030 
03:30	68.1	68.1	68.1	91	65.4	0	0	---	0.00	30.032 
03:35	67.9	67.9	67.9	91	65.2	0	0	---	0.00	30.032 
03:40	67.9	67.9	67.9	91	65.2	0	0	---	0.00	30.032 
03:45	67.8	67.8	67.8	91	65.1	0	0	---	0.00	30.030 
03:50	67.8	67.8	67.8	92	65.4	0	0	---	0.00	30.030 
03:55	67.6	67.6	67.6	92	65.2	0	0	---	0.00	30.030 
04:00	67.4	67.4	67.4	92	65.0	0	0	---	0.00	30.025 
04:05	67.3	67.3	67.3	92	64.9	0	0	---	0.00	30.025 
04:10	67.3	67.3	67.3	92	64.9	0	0	---	0.00	30.025 
04:15	67.1	67.1	67.1	92	64.7	0	0	---	0.00	30.022 
04:20	67.1	67.1	67.1	92	64.7	0	0	---	0.00	30.022 
04:25	66.9	66.9	66.9	92	64.5	0	0	---	0.00	30.022 
04:30	66.8	66.8	66.8	92	64.4	0	0	---	0.00	30.022 
04:35	66.8	66.8	66.8	92	64.4	0	0	---	0.00	30.022 
04:40	66.6	66.6	66.6	92	64.2	0	0	---	0.00	30.022 
04:45	66.4	66.4	66.4	92	64.0	0	0	---	0.00	30.022 
04:50	66.4	66.4	66.4	93	64.3	0	0	---	0.00	30.022 
04:55	66.4	66.4	66.4	93	64.3	0	0	---	0.00	30.022 
05:00	66.3	66.3	66.3	93	64.2	0	0	---	0.00	30.028 
05:05	66.1	66.1	66.1	93	64.0	0	0	---	0.00	30.028 
05:10	66.0	66.0	66.0	93	63.9	0	0	---	0.00	30.028 
05:15	66.0	66.0	66.0	93	63.9	0	0	---	0.00	30.037 
05:20	66.0	66.0	66.0	93	63.9	0	0	---	0.00	30.037 
05:25	65.8	65.8	65.8	93	63.7	0	0	---	0.00	30.037 
05:30	65.8	65.8	65.8	93	63.7	0	0	---	0.00	30.046 
05:35	65.8	65.8	65.8	94	64.0	0	0	---	0.00	30.046 
05:40	65.8	65.8	65.8	94	64.0	0	0	---	0.00	30.046 
05:45	65.8	65.8	65.8	94	64.0	0	0	---	0.00	30.046 
05:50	66.0	66.0	66.0	94	64.2	0	0	---	0.00	30.046 
05:55	66.0	66.0	66.0	94	64.2	0	0	---	0.00	30.046 
06:00	66.0	66.0	66.0	94	64.2	0	0	---	0.00	30.053 
06:05	66.0	66.0	66.0	94	64.2	0	0	---	0.00	30.053 
06:10	66.0	66.0	66.0	94	64.2	0	0	---	0.00	30.053 
06:15	65.8	65.8	65.8	94	64.0	0	0	---	0.00	30.056 
06:20	65.8	65.8	65.8	94	64.0	0	0	---	0.00	30.056 
06:25	65.6	65.6	65.6	94	63.8	0	0	---	0.00	30.056 
06:30	65.6	65.6	65.6	94	63.8	0	0	---	0.00	30.056 
06:35	65.5	65.5	65.5	94	63.7	0	0	---	0.00	30.056 
06:40	65.5	65.5	65.5	95	64.0	0	0	---	0.00	30.056 
06:45	65.6	65.6	65.6	95	64.1	0	0	---	0.00	30.059 
06:50	65.6	65.6	65.6	95	64.1	0	0	---	0.00	30.059 
06:55	65.6	65.6	65.6	95	64.1	0	0	---	0.00	30.059 
07:00	65.8	65.8	65.8	95	64.3	0	0	---	0.00	30.059 
07:05	66.0	66.0	66.0	95	64.5	0	0	---	0.00	30.059 
07:10	66.1	66.1	66.1	95	64.6	0	0	---	0.00	30.059 
07:15	66.3	66.3	66.3	95	64.8	0	0	---	0.00	30.064 
07:20	66.6	66.6	66.6	95	65.1	0	0	---	0.00	30.064 
07:25	66.9	66.9	66.9	95	65.4	0	0	---	0.00	30.064 
07:30	67.4	67.4	67.4	96	66.2	0	0	---	0.00	30.069 
07:35	68.1	68.1	68.1	95	66.6	0	0	---	0.00	30.069 
07:40	68.8	68.8	68.8	94	67.0	0	1	315	0.00	30.069 
07:45	69.3	69.3	69.3	91	66.6	0	1	315	0.00	30.071 
07:50	69.8	69.8	69.8	89	66.4	0	0	---	0.00	30.071 
07:55	70.3	70.3	70.3	87	66.2	0	0	---	0.00	30.071 
08:00	70.4	70.4	70.4	85	65.7	0	1	315	0.00	30.071 
08:05	70.9	70.9	70.9	84	65.8	0	0	---	0.00	30.071 
08:10	71.5	71.5	71.5	82	65.7	0	1	315	0.00	30.071 
08:15	72.1	72.1	72.1	80	65.6	0	1	315	0.00	30.069 
08:20	72.8	72.8	72.8	79	65.9	0	1	315	0.00	30.069 
08:25	73.9	73.9	73.9	77	66.2	0	1	315	0.00	30.069 
08:30	74.9	74.9	74.9	75	66.4	0	2	315	0.00	30.066 
08:35	75.6	75.6	77.1	72	65.9	1	3	22	0.00	30.066 
08:40	76.0	76.0	77.7	69	65.1	1	4	112	0.00	30.066 
08:45	76.3	76.3	78.1	67	64.5	1	4	112	0.00	30.052 
08:50	76.8	76.8	78.6	67	65.0	1	3	112	0.00	30.052 
08:55	77.2	77.2	79.0	66	64.9	1	4	112	0.00	30.052 
09:00	77.6	77.6	79.4	65	64.9	1	4	112	0.00	30.054 
09:05	77.7	77.7	79.5	65	65.0	1	2	112	0.00	30.054 
09:10	78.1	78.1	79.9	63	64.5	0	1	112	0.00	30.054 
09:15	78.1	78.1	79.9	63	64.5	1	3	112	0.00	30.060 
09:20	77.9	77.9	79.7	63	64.3	0	2	112	0.00	30.060 
09:25	77.9	77.9	79.7	64	64.7	0	2	135	0.00	30.060 
09:30	77.7	77.7	79.5	63	64.1	1	4	135	0.00	30.058 
09:35	77.6	77.6	79.4	64	64.4	1	3	158	0.00	30.058 
09:40	77.7	77.7	79.5	63	64.1	1	4	112	0.00	30.058 
09:45	78.3	78.3	80.0	61	63.7	1	3	112	0.00	30.059 
09:50	79.0	79.0	80.5	58	62.9	1	3	135	0.00	30.059 
09:55	79.8	79.8	81.2	56	62.7	1	3	112	0.00	30.059 
10:00	80.7	80.7	82.2	56	63.5	1	3	112	0.00	30.054 
10:05	81.2	81.2	82.3	53	62.4	1	4	112	0.00	30.054 
10:10	81.2	81.2	82.3	53	62.4	2	5	112	0.00	30.054 
10:15	81.1	81.1	82.6	56	63.9	2	5	112	0.00	30.052 
10:20	81.2	81.2	82.9	57	64.5	1	3	90	0.00	30.052 
10:25	81.6	81.6	83.4	57	64.9	1	5	90	0.00	30.052 
10:30	81.8	81.8	83.8	58	65.6	1	3	112	0.00	30.050 
10:35	82.0	82.0	84.2	59	66.2	1	3	90	0.00	30.050 
10:40	82.4	82.4	85.2	61	67.6	0	2	112	0.00	30.050 
10:45	82.4	82.4	85.2	61	67.6	1	3	112	0.00	30.048 
10:50	82.2	82.2	85.3	63	68.3	1	3	90	0.00	30.048 
10:55	81.8	81.8	85.1	65	68.9	1	4	112	0.00	30.048 
11:00	81.8	81.8	85.3	66	69.3	1	4	112	0.00	30.042 
11:05	82.0	82.0	85.6	66	69.5	1	2	90	0.00	30.042 
11:10	82.2	82.2	85.9	66	69.7	1	3	90	0.00	30.042 
11:15	82.4	82.4	86.5	67	70.3	1	3	135	0.00	30.045 
11:20	82.6	82.6	87.3	69	71.4	1	3	90	0.00	30.045 
11:25	83.0	83.0	87.6	67	70.9	1	2	90	0.00	30.045 
11:30	83.0	83.0	87.3	66	70.4	1	3	90	0.00	30.045 
11:35	83.4	83.4	88.1	66	70.8	1	2	90	0.00	30.045 
11:40	83.8	83.8	88.8	66	71.2	1	4	90	0.00	30.045 
11:45	84.0	84.0	88.9	65	70.9	1	3	90	0.00	30.042 
11:50	84.1	84.1	89.1	65	71.0	1	3	90	0.00	30.042 
11:55	84.5	84.5	89.9	65	71.4	1	2	90	0.00	30.042 
12:00	84.5	84.5	89.6	64	71.0	1	4	270	0.00	30.035 
12:05	84.3	84.3	89.2	64	70.8	1	3	270	0.00	30.035 
12:10	84.7	84.7	90.3	65	71.6	1	4	270	0.00	30.035 
12:15	84.5	84.5	89.3	63	70.5	2	4	90	0.00	30.030 
12:20	84.5	84.5	89.6	64	71.0	1	4	90	0.00	30.030 
12:25	84.7	84.7	90.0	64	71.1	1	3	45	0.00	30.030 
12:30	85.1	85.1	90.4	63	71.1	1	4	45	0.00	30.020 
12:35	85.3	85.3	90.8	63	71.2	1	2	112	0.00	30.020 
12:40	85.3	85.3	91.2	64	71.7	1	4	22	0.00	30.020 
12:45	85.1	85.1	90.4	63	71.1	1	5	68	0.00	30.017 
12:50	85.1	85.1	90.8	64	71.5	1	3	68	0.00	30.017 
12:55	85.1	85.1	90.8	64	71.5	1	3	248	0.00	30.017 
13:00	84.7	84.7	90.0	64	71.1	1	4	22	0.00	30.018 
13:05	84.9	84.9	90.7	65	71.8	1	4	90	0.00	30.018 
13:10	84.9	84.9	91.0	66	72.2	1	3	270	0.00	30.018 
13:15	85.1	85.1	91.1	65	72.0	1	4	270	0.00	30.018 
13:20	84.9	84.9	90.7	65	71.8	1	3	112	0.00	30.018 
13:25	84.5	84.5	90.2	66	71.9	1	4	270	0.00	30.018 
13:30	84.3	84.3	89.5	65	71.2	2	6	68	0.00	30.017 
13:35	84.1	84.1	89.4	66	71.5	1	4	270	0.00	30.017 
13:40	84.1	84.1	89.4	66	71.5	1	3	270	0.00	30.017 
13:45	84.3	84.3	90.5	68	72.6	0	3	270	0.00	30.006 
13:50	84.5	84.5	90.5	67	72.3	1	3	270	0.00	30.006 
13:55	84.9	84.9	91.0	66	72.2	0	2	135	0.00	30.006 
14:00	84.9	84.9	91.4	67	72.7	1	5	90	0.00	30.001 
14:05	85.3	85.3	91.9	66	72.6	1	3	90	0.00	30.001 
14:10	85.3	85.3	91.9	66	72.6	1	5	270	0.00	30.001 
14:15	85.7	85.7	92.3	65	72.5	1	3	270	0.00	29.993 
14:20	86.1	86.1	92.8	64	72.5	0	2	270	0.00	29.993 
14:25	86.3	86.3	92.8	63	72.2	1	5	270	0.00	29.993 
14:30	86.5	86.5	94.1	65	73.3	1	5	270	0.00	29.980 
14:35	87.2	87.2	94.8	63	73.0	0	2	248	0.00	29.980 
14:40	87.8	87.8	96.6	64	74.1	0	2	315	0.00	29.980 
14:45	88.4	88.4	96.0	60	72.7	1	4	270	0.00	29.972 
14:50	88.2	88.2	96.1	61	73.0	1	4	270	0.00	29.972 
14:55	88.4	88.4	96.0	60	72.7	1	10	112	0.00	29.972 
15:00	88.0	88.0	95.6	61	72.8	1	5	270	0.00	29.972 
15:05	87.6	87.6	95.2	62	72.9	1	3	292	0.00	29.972 
15:10	87.2	87.2	94.3	62	72.6	1	3	292	0.00	29.972 
15:15	86.5	86.5	93.3	63	72.4	1	3	292	0.00	29.967 
15:20	87.2	87.2	96.1	66	74.4	1	3	270	0.00	29.967 
15:25	88.2	88.2	96.1	61	73.0	1	3	68	0.00	29.967 
15:30	88.2	88.2	96.1	61	73.0	2	5	270	0.00	29.956 
15:35	87.8	87.8	95.6	62	73.1	2	4	270	0.00	29.956 
15:40	87.6	87.6	95.2	62	72.9	2	5	292	0.00	29.956 
15:45	87.6	87.6	94.3	60	72.0	2	6	270	0.00	29.954 
15:50	88.0	88.0	94.7	59	71.8	2	5	292	0.00	29.954 
15:55	88.0	88.0	94.3	58	71.3	2	5	292	0.00	29.954 
16:00	88.2	88.2	94.7	58	71.5	1	5	248	0.00	29.945 
16:05	87.8	87.8	94.7	60	72.1	2	6	292	0.00	29.945 
16:10	88.2	88.2	94.7	58	71.5	2	5	270	0.00	29.945 
16:15	87.8	87.8	95.2	61	72.6	3	10	270	0.00	29.944 
16:20	87.6	87.6	95.2	62	72.9	1	3	68	0.00	29.944 
16:25	87.6	87.6	95.7	63	73.4	1	5	248	0.00	29.944 
16:30	87.6	87.6	95.2	62	72.9	2	5	338	0.00	29.932 
16:35	87.6	87.6	95.2	62	72.9	1	4	135	0.00	29.932 
16:40	87.8	87.8	96.6	64	74.1	1	5	338	0.00	29.932 
16:45	87.8	87.8	95.6	62	73.1	1	4	248	0.00	29.926 
16:50	87.4	87.4	95.7	64	73.7	0	4	315	0.00	29.926 
16:55	87.0	87.0	94.3	63	72.8	1	4	292	0.00	29.926 
17:00	86.5	86.5	93.3	63	72.4	2	4	270	0.00	29.927 
17:05	86.3	86.3	93.6	65	73.1	1	5	248	0.00	29.927 
17:10	86.1	86.1	93.2	65	72.9	1	6	270	0.00	29.927 
17:15	86.3	86.3	94.1	66	73.6	2	5	270	0.00	29.924 
17:20	86.3	86.3	94.1	66	73.6	1	6	270	0.00	29.924 
17:25	86.1	86.1	94.0	67	73.8	1	3	270	0.00	29.924 
17:30	85.9	85.9	93.6	67	73.6	1	4	270	0.00	29.912 
17:35	85.5	85.5	93.1	68	73.7	1	3	270	0.00	29.912 
17:40	85.1	85.1	92.2	68	73.3	1	4	270	0.00	29.912 
17:45	84.9	84.9	91.7	68	73.1	1	4	45	0.00	29.914 
17:50	84.5	84.5	90.5	67	72.3	1	5	270	0.00	29.914 
17:55	84.1	84.1	89.7	67	71.9	1	4	270	0.00	29.914 
18:00	84.0	84.0	89.5	67	71.8	1	3	270	0.00	29.913 
18:05	84.1	84.1	89.7	67	71.9	1	5	270	0.00	29.913 
18:10	84.5	84.5	90.5	67	72.3	1	4	68	0.00	29.913 
18:15	84.7	84.7	91.0	67	72.5	1	7	270	0.00	29.908 
18:20	84.9	84.9	91.4	67	72.7	1	5	270	0.00	29.908 
18:25	84.9	84.9	91.0	66	72.2	2	5	270	0.00	29.908 
18:30	84.9	84.9	91.4	67	72.7	1	3	270	0.00	29.900 
18:35	84.7	84.7	91.3	68	72.9	0	3	270	0.00	29.900 
18:40	84.7	84.7	91.3	68	72.9	1	7	270	0.00	29.900 
18:45	84.7	84.7	91.7	69	73.4	1	3	270	0.00	29.899 
18:50	84.9	84.9	91.7	68	73.1	1	7	315	0.00	29.899 
18:55	85.1	85.1	92.2	68	73.3	1	4	248	0.00	29.899 
19:00	84.9	84.9	92.1	69	73.6	1	5	248	0.00	29.911 
19:05	84.5	84.5	91.6	70	73.6	1	3	270	0.00	29.911 
19:10	84.5	84.5	91.6	70	73.6	1	4	270	0.00	29.911 
19:15	84.1	84.1	90.7	70	73.2	2	5	292	0.00	29.910 
19:20	84.0	84.0	90.8	71	73.6	2	9	248	0.00	29.910 
19:25	83.8	83.8	90.7	72	73.8	1	6	270	0.00	29.910 
19:30	83.8	83.8	91.0	73	74.2	0	2	270	0.00	29.908 
19:35	83.6	83.6	90.5	73	74.0	1	6	248	0.00	29.908 
19:40	83.4	83.4	90.4	74	74.2	1	6	270	0.00	29.908 
19:45	83.4	83.4	90.4	74	74.2	1	3	315	0.00	29.909 
19:50	83.2	83.2	90.0	74	74.0	1	3	248	0.00	29.909 
19:55	83.2	83.2	90.3	75	74.4	0	3	225	0.00	29.909 
20:00	83.2	83.2	90.3	75	74.4	1	4	270	0.00	29.912 
20:05	83.2	83.2	90.3	75	74.4	0	2	270	0.00	29.912 
20:10	83.2	83.2	90.3	75	74.4	1	3	292	0.00	29.912 
20:15	83.2	83.2	90.3	75	74.4	0	3	248	0.00	29.906 
20:20	83.0	83.0	90.1	76	74.6	0	2	292	0.00	29.906 
20:25	83.0	83.0	90.1	76	74.6	1	3	292	0.00	29.906 
20:30	82.8	82.8	89.6	76	74.4	1	6	292	0.00	29.893 
20:35	82.8	82.8	89.6	76	74.4	0	3	270	0.00	29.893 
20:40	82.6	82.6	89.4	77	74.6	1	5	248	0.00	29.893 
20:45	82.6	82.6	89.4	77	74.6	0	2	248	0.00	29.884 
20:50	82.4	82.4	89.0	77	74.4	1	4	248	0.00	29.884 
20:55	82.2	82.2	88.5	77	74.2	0	2	338	0.00	29.884 
21:00	82.2	82.2	88.8	78	74.6	0	1	315	0.00	29.875 
21:05	82.0	82.0	88.3	78	74.4	0	2	315	0.00	29.875 
21:10	81.8	81.8	87.8	78	74.2	1	2	315	0.00	29.875 
21:15	81.6	81.6	87.4	78	74.1	1	2	0	0.00	29.871 
21:20	81.4	81.4	86.9	78	73.9	0	4	315	0.00	29.871 
21:25	81.4	81.4	86.9	78	73.9	1	4	315	0.00	29.871 
21:30	81.4	81.4	86.9	78	73.9	0	1	270	0.00	29.878 
21:35	81.4	81.4	86.7	77	73.5	0	3	270	0.00	29.878 
21:40	81.2	81.2	86.5	78	73.7	0	3	270	0.00	29.878 
21:45	81.2	81.2	86.5	78	73.7	0	0	---	0.00	29.885 
21:50	81.1	81.1	86.3	78	73.6	0	2	270	0.00	29.885 
21:55	80.9	80.9	85.8	78	73.4	0	3	270	0.00	29.885 
22:00	80.9	80.9	85.8	78	73.4	0	2	270	0.00	29.882 
22:05	80.7	80.7	85.4	78	73.2	0	2	270	0.00	29.882 
22:10	80.5	80.5	85.0	78	73.0	0	3	270	0.00	29.882 
22:15	80.5	80.5	85.0	78	73.0	1	5	270	0.00	29.888 
22:20	80.5	80.5	85.0	78	73.0	0	3	270	0.00	29.888 
22:25	80.3	80.3	84.7	79	73.2	1	3	270	0.00	29.888 
22:30	80.3	80.3	84.7	79	73.2	0	2	248	0.00	29.889 
22:35	80.1	80.1	84.3	79	73.0	0	2	22	0.00	29.889 
22:40	79.9	79.9	83.9	79	72.8	0	2	315	0.00	29.889 
22:45	79.9	79.9	84.0	80	73.2	1	3	315	0.00	29.902 
22:50	79.8	79.8	83.8	80	73.1	0	3	292	0.00	29.902 
22:55	79.8	79.8	83.9	81	73.4	1	3	270	0.00	29.902 
23:00	79.6	79.6	83.5	81	73.2	0	2	315	0.00	29.902 
23:05	79.6	79.6	83.5	81	73.2	0	1	315	0.00	29.902 
23:10	79.4	79.4	83.1	81	73.0	0	3	225	0.00	29.902 
23:15	79.4	79.4	83.2	82	73.4	1	4	270	0.00	29.902 
23:20	79.4	79.4	83.2	82	73.4	0	1	338	0.00	29.902 
23:25	79.2	79.2	82.8	82	73.2	0	1	315	0.00	29.902 
23:30	79.2	79.2	82.8	82	73.2	0	2	270	0.00	29.892 
23:35	79.0	79.0	82.3	82	73.0	0	1	270	0.00	29.892 
23:40	78.8	78.8	82.0	83	73.2	0	2	22	0.00	29.892 
23:45	78.8	78.8	82.0	83	73.2	0	1	0	0.00	29.885 
23:50	78.8	78.8	82.0	83	73.2	0	1	0	0.00	29.885 
23:55	78.8	78.8	82.0	83	73.2	0	2	0	0.00	29.885 

CoCoRaHS
IN-AL-39
A2 Web Hosting
Creative Commons License
GoDaddy
search engine by freefind advanced

loaded 2018-11-14 00:44:25 • last modified 2010-11-18 10:43:29
Privacy PolicyDisclaimer
• wx.awcolley.com is powered by PmWiki v.2002016 •
• all content (unless otherwise noted) © 2018 A W Colley